Overview Statistics Trail Chart Weather Telemetry Raw packets
 

This is the latest recevied weather packets stored in our database for station/object KB4JAC-13. If no packets are shown the sender has not sent any weather packets the latest 10 day(s).

<< 34 35 36 37 38 39 40 >>
Time Temp. Humidity Pressure Rain* Wind** Luminosity Snow
1788041021 31.67° C 67% 992.8 hPa 0 mm - - -
1788040421 32.22° C 66% 992.6 hPa 0 mm - - -
1788039820 32.78° C 60% 992.8 hPa 0 mm - - -
1788039219 34.44° C 57% 992.8 hPa 0 mm - - -
1788038619 35° C 54% 992.8 hPa 0 mm - - -
1788038018 34.44° C 55% 992.8 hPa 0 mm - - -
1788037418 35° C 52% 992.9 hPa 0 mm - - -
1788036817 34.44° C 51% 992.8 hPa 0 mm - - -
1788036216 34.44° C 53% 992.9 hPa 0 mm - - -
1788035616 33.89° C 55% 993.1 hPa 0 mm - - -
1788035016 32.22° C 60% 993.3 hPa 0 mm - - -
1788034415 33.89° C 56% 993.1 hPa 0 mm - - -
1788033820 32.78° C 63% 993.3 hPa 0 mm - - -
1788033214 32.78° C 60% 993.6 hPa 0 mm - - -
1788032613 31.67° C 64% 993.6 hPa 0 mm - - -
1788032013 32.78° C 60% 993.4 hPa 0 mm - - -
1788031412 35° C 56% 993.5 hPa 0 mm - - -
1788030811 32.22° C 65% 993.5 hPa 0 mm - - -
1788030211 31.11° C 69% 994 hPa 0 mm - - -
1788029611 31.11° C 63% 994 hPa 0 mm - - -
1788029010 31.67° C 64% 994.3 hPa 0 mm - - -
1788028409 32.78° C 60% 994.3 hPa 0 mm - - -
1788027809 33.33° C 58% 994.3 hPa 0 mm - - -
1788027208 32.78° C 61% 994.4 hPa 0 mm - - -
1788026607 32.22° C 64% 994.6 hPa 0 mm - - -

* Rain since midnight (hover to see other rain measurements)
** Current wind speed in m/s (hover to see current wind gust speed)